sensor_id;sensor_type;location;lat;lon;timestamp;pressure;altitude;pressure_sealevel;temperature;humidity
11542;BME280;5827;49.482;7.716;2023-02-22T00:00:11;98710.84;;;3.49;100.00
11542;BME280;5827;49.482;7.716;2023-02-22T00:02:23;98711.63;;;3.43;100.00
11542;BME280;5827;49.482;7.716;2023-02-22T00:04:28;98705.94;;;3.46;100.00
11542;BME280;5827;49.482;7.716;2023-02-22T00:06:29;98706.75;;;3.40;100.00
11542;BME280;5827;49.482;7.716;2023-02-22T00:08:32;98704.25;;;3.31;100.00
11542;BME280;5827;49.482;7.716;2023-02-22T00:10:34;98695.50;;;3.38;100.00
11542;BME280;5827;49.482;7.716;2023-02-22T00:12:38;98705.06;;;3.32;100.00
11542;BME280;5827;49.482;7.716;2023-02-22T00:14:39;98703.63;;;3.29;100.00
11542;BME280;5827;49.482;7.716;2023-02-22T00:16:41;98691.84;;;3.32;100.00
11542;BME280;5827;49.482;7.716;2023-02-22T00:18:44;98695.06;;;3.27;100.00
11542;BME280;5827;49.482;7.716;2023-02-22T00:20:46;98696.69;;;3.28;100.00
11542;BME280;5827;49.482;7.716;2023-02-22T00:22:48;98693.63;;;3.25;100.00
11542;BME280;5827;49.482;7.716;2023-02-22T00:24:52;98693.63;;;3.25;100.00
11542;BME280;5827;49.482;7.716;2023-02-22T00:26:54;98691.56;;;3.14;100.00
11542;BME280;5827;49.482;7.716;2023-02-22T00:28:56;98689.72;;;3.14;100.00
11542;BME280;5827;49.482;7.716;2023-02-22T00:30:57;98690.16;;;3.18;100.00
11542;BME280;5827;49.482;7.716;2023-02-22T00:32:59;98683.63;;;3.20;100.00
11542;BME280;5827;49.482;7.716;2023-02-22T00:35:02;98683.63;;;3.20;100.00
11542;BME280;5827;49.482;7.716;2023-02-22T00:37:07;98684.06;;;3.24;100.00
11542;BME280;5827;49.482;7.716;2023-02-22T00:39:08;98688.91;;;3.14;100.00
11542;BME280;5827;49.482;7.716;2023-02-22T00:41:10;98690.31;;;3.10;100.00
11542;BME280;5827;49.482;7.716;2023-02-22T00:43:12;98689.06;;;3.05;100.00
11542;BME280;5827;49.482;7.716;2023-02-22T00:45:16;98691.06;;;2.97;100.00
11542;BME280;5827;49.482;7.716;2023-02-22T00:47:18;98701.03;;;2.95;100.00
11542;BME280;5827;49.482;7.716;2023-02-22T00:49:19;98698.84;;;2.98;100.00
11542;BME280;5827;49.482;7.716;2023-02-22T00:51:25;98700.03;;;2.96;100.00
11542;BME280;5827;49.482;7.716;2023-02-22T00:53:28;98694.13;;;2.94;100.00
11542;BME280;5827;49.482;7.716;2023-02-22T00:55:31;98692.91;;;2.96;100.00
11542;BME280;5827;49.482;7.716;2023-02-22T00:57:32;98691.88;;;2.97;100.00
11542;BME280;5827;49.482;7.716;2023-02-22T00:59:34;98693.16;;;3.08;100.00
11542;BME280;5827;49.482;7.716;2023-02-22T01:01:36;98697.66;;;3.08;100.00
11542;BME280;5827;49.482;7.716;2023-02-22T01:03:37;98698.03;;;3.04;100.00
11542;BME280;5827;49.482;7.716;2023-02-22T01:05:40;98693.91;;;2.95;100.00
11542;BME280;5827;49.482;7.716;2023-02-22T01:07:44;98691.25;;;2.89;100.00
11542;BME280;5827;49.482;7.716;2023-02-22T01:09:45;98696.94;;;2.92;100.00
11542;BME280;5827;49.482;7.716;2023-02-22T01:11:49;98693.72;;;2.97;100.00
11542;BME280;5827;49.482;7.716;2023-02-22T01:13:54;98690.31;;;3.03;100.00
11542;BME280;5827;49.482;7.716;2023-02-22T01:15:56;98686.38;;;2.92;100.00
11542;BME280;5827;49.482;7.716;2023-02-22T01:17:59;98684.97;;;2.96;100.00
11542;BME280;5827;49.482;7.716;2023-02-22T01:20:01;98683.13;;;2.97;100.00
11542;BME280;5827;49.482;7.716;2023-02-22T01:22:04;98689.88;;;2.99;100.00
11542;BME280;5827;49.482;7.716;2023-02-22T01:24:07;98687.22;;;2.99;100.00
11542;BME280;5827;49.482;7.716;2023-02-22T01:26:09;98686.22;;;3.00;100.00
11542;BME280;5827;49.482;7.716;2023-02-22T01:28:11;98688.03;;;3.00;100.00
11542;BME280;5827;49.482;7.716;2023-02-22T01:30:13;98689.22;;;2.97;100.00
11542;BME280;5827;49.482;7.716;2023-02-22T01:32:15;98687.03;;;3.01;100.00
11542;BME280;5827;49.482;7.716;2023-02-22T01:34:17;98687.66;;;3.10;100.00
11542;BME280;5827;49.482;7.716;2023-02-22T01:36:18;98687.06;;;3.08;100.00
11542;BME280;5827;49.482;7.716;2023-02-22T01:38:21;98678.03;;;2.95;100.00
11542;BME280;5827;49.482;7.716;2023-02-22T01:40:26;98678.91;;;3.02;100.00
11542;BME280;5827;49.482;7.716;2023-02-22T01:42:28;98675.78;;;2.92;100.00
11542;BME280;5827;49.482;7.716;2023-02-22T01:44:33;98674.78;;;2.93;100.00
11542;BME280;5827;49.482;7.716;2023-02-22T01:46:33;98666.25;;;2.98;100.00
11542;BME280;5827;49.482;7.716;2023-02-22T01:48:38;98669.31;;;3.01;100.00
11542;BME280;5827;49.482;7.716;2023-02-22T01:50:44;98668.50;;;3.01;100.00
11542;BME280;5827;49.482;7.716;2023-02-22T01:52:47;98666.47;;;3.03;100.00
11542;BME280;5827;49.482;7.716;2023-02-22T01:54:53;98665.19;;;2.92;100.00
11542;BME280;5827;49.482;7.716;2023-02-22T01:57:02;98662.38;;;2.94;100.00
11542;BME280;5827;49.482;7.716;2023-02-22T01:59:09;98665.78;;;2.88;100.00
11542;BME280;5827;49.482;7.716;2023-02-22T02:01:11;98663.94;;;2.88;100.00
11542;BME280;5827;49.482;7.716;2023-02-22T02:03:16;98661.31;;;2.88;100.00
11542;BME280;5827;49.482;7.716;2023-02-22T02:05:20;98660.69;;;2.86;100.00
11542;BME280;5827;49.482;7.716;2023-02-22T02:07:23;98654.00;;;2.90;100.00
11542;BME280;5827;49.482;7.716;2023-02-22T02:09:29;98656.22;;;2.87;100.00
11542;BME280;5827;49.482;7.716;2023-02-22T02:11:33;98657.47;;;2.91;100.00
11542;BME280;5827;49.482;7.716;2023-02-22T02:13:36;98652.41;;;2.96;100.00
11542;BME280;5827;49.482;7.716;2023-02-22T02:15:37;98650.53;;;2.90;100.00
11542;BME280;5827;49.482;7.716;2023-02-22T02:17:39;98649.31;;;2.86;100.00
11542;BME280;5827;49.482;7.716;2023-02-22T02:19:47;98647.69;;;2.85;100.00
11542;BME280;5827;49.482;7.716;2023-02-22T02:22:23;98645.25;;;2.90;100.00
11542;BME280;5827;49.482;7.716;2023-02-22T02:27:18;98641.09;;;2.74;100.00
11542;BME280;5827;49.482;7.716;2023-02-22T02:32:21;98633.38;;;2.79;100.00
11542;BME280;5827;49.482;7.716;2023-02-22T02:34:30;98629.75;;;2.80;100.00
11542;BME280;5827;49.482;7.716;2023-02-22T02:36:37;98624.63;;;2.78;100.00
11542;BME280;5827;49.482;7.716;2023-02-22T02:38:45;98625.66;;;2.77;100.00
11542;BME280;5827;49.482;7.716;2023-02-22T02:40:51;98625.88;;;2.83;100.00
11542;BME280;5827;49.482;7.716;2023-02-22T02:42:59;98624.63;;;2.78;100.00
11542;BME280;5827;49.482;7.716;2023-02-22T02:45:06;98621.97;;;2.78;100.00
11542;BME280;5827;49.482;7.716;2023-02-22T02:47:12;98623.22;;;2.76;100.00
11542;BME280;5827;49.482;7.716;2023-02-22T02:49:17;98617.50;;;2.72;100.00
11542;BME280;5827;49.482;7.716;2023-02-22T02:51:20;98618.28;;;2.66;100.00
11542;BME280;5827;49.482;7.716;2023-02-22T02:53:26;98625.34;;;2.59;100.00
11542;BME280;5827;49.482;7.716;2023-02-22T02:55:31;98615.75;;;2.51;100.00
11542;BME280;5827;49.482;7.716;2023-02-22T02:57:36;98622.47;;;2.54;100.00
11542;BME280;5827;49.482;7.716;2023-02-22T02:59:39;98616.81;;;2.57;100.00
11542;BME280;5827;49.482;7.716;2023-02-22T03:01:51;98619.84;;;2.54;100.00
11542;BME280;5827;49.482;7.716;2023-02-22T03:04:32;98608.59;;;2.45;100.00
11542;BME280;5827;49.482;7.716;2023-02-22T03:07:02;98607.59;;;2.46;100.00
11542;BME280;5827;49.482;7.716;2023-02-22T03:09:10;98610.47;;;2.51;100.00
11542;BME280;5827;49.482;7.716;2023-02-22T03:11:18;98605.81;;;2.53;100.00
11542;BME280;5827;49.482;7.716;2023-02-22T03:13:28;98612.44;;;2.43;100.00
11542;BME280;5827;49.482;7.716;2023-02-22T03:15:38;98608.81;;;2.44;100.00
11542;BME280;5827;49.482;7.716;2023-02-22T03:17:47;98608.00;;;2.43;100.00
11542;BME280;5827;49.482;7.716;2023-02-22T03:19:57;98605.72;;;2.40;100.00
11542;BME280;5827;49.482;7.716;2023-02-22T03:22:03;98608.81;;;2.44;100.00
11542;BME280;5827;49.482;7.716;2023-02-22T03:24:15;98611.63;;;2.42;100.00
11542;BME280;5827;49.482;7.716;2023-02-22T03:26:20;98603.28;;;2.39;100.00
11542;BME280;5827;49.482;7.716;2023-02-22T03:28:24;98596.34;;;2.38;100.00
11542;BME280;5827;49.482;7.716;2023-02-22T03:30:31;98598.81;;;2.39;100.00
11542;BME280;5827;49.482;7.716;2023-02-22T03:32:38;98598.19;;;2.37;100.00
11542;BME280;5827;49.482;7.716;2023-02-22T03:34:44;98600.44;;;2.40;100.00
11542;BME280;5827;49.482;7.716;2023-02-22T03:36:52;98591.03;;;2.31;100.00
11542;BME280;5827;49.482;7.716;2023-02-22T03:38:57;98593.47;;;2.33;100.00
11542;BME280;5827;49.482;7.716;2023-02-22T03:41:01;98594.94;;;2.35;100.00
11542;BME280;5827;49.482;7.716;2023-02-22T03:43:06;98591.25;;;2.36;100.00
11542;BME280;5827;49.482;7.716;2023-02-22T03:45:08;98595.31;;;2.32;100.00
11542;BME280;5827;49.482;7.716;2023-02-22T03:47:20;98602.22;;;2.33;100.00
11542;BME280;5827;49.482;7.716;2023-02-22T03:49:28;98591.25;;;2.29;100.00
11542;BME280;5827;49.482;7.716;2023-02-22T03:51:34;98590.81;;;2.26;100.00
11542;BME280;5827;49.482;7.716;2023-02-22T03:53:37;98590.81;;;2.26;100.00
11542;BME280;5827;49.482;7.716;2023-02-22T03:55:38;98587.13;;;2.27;100.00
11542;BME280;5827;49.482;7.716;2023-02-22T03:57:43;98590.16;;;2.24;100.00
11542;BME280;5827;49.482;7.716;2023-02-22T03:59:46;98587.13;;;2.27;100.00
11542;BME280;5827;49.482;7.716;2023-02-22T04:01:47;98588.06;;;2.13;100.00
11542;BME280;5827;49.482;7.716;2023-02-22T04:03:50;98578.09;;;2.15;100.00
11542;BME280;5827;49.482;7.716;2023-02-22T04:05:51;98580.19;;;2.19;100.00
11542;BME280;5827;49.482;7.716;2023-02-22T04:07:53;98577.72;;;2.18;100.00
11542;BME280;5827;49.482;7.716;2023-02-22T04:09:57;98579.34;;;2.12;100.00
11542;BME280;5827;49.482;7.716;2023-02-22T04:11:58;98574.22;;;2.11;100.00
11542;BME280;5827;49.482;7.716;2023-02-22T04:14:00;98581.50;;;2.02;100.00
11542;BME280;5827;49.482;7.716;2023-02-22T04:16:01;98574.00;;;2.06;100.00
11542;BME280;5827;49.482;7.716;2023-02-22T04:18:03;98574.44;;;2.09;100.00
11542;BME280;5827;49.482;7.716;2023-02-22T04:20:05;98579.03;;;2.00;100.00
11542;BME280;5827;49.482;7.716;2023-02-22T04:22:06;98576.22;;;2.02;100.00
11542;BME280;5827;49.482;7.716;2023-02-22T04:24:08;98570.09;;;2.01;100.00
11542;BME280;5827;49.482;7.716;2023-02-22T04:26:11;98574.34;;;1.96;100.00
11542;BME280;5827;49.482;7.716;2023-02-22T04:28:12;98577.78;;;1.96;100.00
11542;BME280;5827;49.482;7.716;2023-02-22T04:30:15;98571.25;;;1.92;100.00
11542;BME280;5827;49.482;7.716;2023-02-22T04:32:17;98575.16;;;1.96;100.00
11542;BME280;5827;49.482;7.716;2023-02-22T04:34:19;98572.72;;;1.95;100.00
11542;BME280;5827;49.482;7.716;2023-02-22T04:36:20;98572.47;;;1.90;100.00
11542;BME280;5827;49.482;7.716;2023-02-22T04:38:22;98570.03;;;1.88;100.00
11542;BME280;5827;49.482;7.716;2023-02-22T04:40:25;98574.53;;;1.94;100.00
11542;BME280;5827;49.482;7.716;2023-02-22T04:42:27;98572.66;;;1.88;100.00
11542;BME280;5827;49.482;7.716;2023-02-22T04:44:29;98564.75;;;1.88;100.00
11542;BME280;5827;49.482;7.716;2023-02-22T04:46:31;98565.34;;;1.90;100.00
11542;BME280;5827;49.482;7.716;2023-02-22T04:48:32;98569.47;;;1.93;100.00
11542;BME280;5827;49.482;7.716;2023-02-22T04:50:34;98563.59;;;1.97;100.00
11542;BME280;5827;49.482;7.716;2023-02-22T04:52:35;98568.25;;;1.95;100.00
11542;BME280;5827;49.482;7.716;2023-02-22T04:54:37;98569.88;;;1.96;100.00
11542;BME280;5827;49.482;7.716;2023-02-22T04:56:38;98572.94;;;2.00;100.00
11542;BME280;5827;49.482;7.716;2023-02-22T04:58:41;98564.19;;;1.99;100.00
11542;BME280;5827;49.482;7.716;2023-02-22T05:00:43;98568.88;;;1.97;100.00
11542;BME280;5827;49.482;7.716;2023-02-22T05:02:44;98566.81;;;1.93;100.00
11542;BME280;5827;49.482;7.716;2023-02-22T05:04:46;98568.81;;;1.91;100.00
11542;BME280;5827;49.482;7.716;2023-02-22T05:06:47;98568.38;;;1.87;100.00
11542;BME280;5827;49.482;7.716;2023-02-22T05:08:49;98572.22;;;1.85;100.00
11542;BME280;5827;49.482;7.716;2023-02-22T05:10:50;98566.88;;;1.78;100.00
11542;BME280;5827;49.482;7.716;2023-02-22T05:12:52;98563.44;;;1.77;100.00
11542;BME280;5827;49.482;7.716;2023-02-22T05:14:54;98570.53;;;1.77;100.00
11542;BME280;5827;49.482;7.716;2023-02-22T05:16:56;98567.66;;;1.72;100.00
11542;BME280;5827;49.482;7.716;2023-02-22T05:18:58;98561.00;;;1.76;100.00
11542;BME280;5827;49.482;7.716;2023-02-22T05:21:00;98559.97;;;1.77;100.00
11542;BME280;5827;49.482;7.716;2023-02-22T05:23:02;98564.06;;;1.80;100.00
11542;BME280;5827;49.482;7.716;2023-02-22T05:25:05;98567.31;;;1.82;100.00
11542;BME280;5827;49.482;7.716;2023-02-22T05:27:06;98568.34;;;1.81;100.00
11542;BME280;5827;49.482;7.716;2023-02-22T05:29:08;98566.50;;;1.81;100.00
11542;BME280;5827;49.482;7.716;2023-02-22T05:31:11;98566.47;;;1.74;100.00
11542;BME280;5827;49.482;7.716;2023-02-22T05:33:12;98568.09;;;1.75;100.00
11542;BME280;5827;49.482;7.716;2023-02-22T05:35:14;98566.84;;;1.71;100.00
11542;BME280;5827;49.482;7.716;2023-02-22T05:37:15;98559.94;;;1.70;100.00
11542;BME280;5827;49.482;7.716;2023-02-22T05:39:17;98566.84;;;1.71;100.00
11542;BME280;5827;49.482;7.716;2023-02-22T05:41:19;98568.84;;;1.69;100.00
11542;BME280;5827;49.482;7.716;2023-02-22T05:43:20;98572.91;;;1.65;100.00
11542;BME280;5827;49.482;7.716;2023-02-22T05:45:24;98566.59;;;1.66;100.00
11542;BME280;5827;49.482;7.716;2023-02-22T05:47:27;98575.72;;;1.64;100.00
11542;BME280;5827;49.482;7.716;2023-02-22T05:49:28;98570.84;;;1.61;100.00
11542;BME280;5827;49.482;7.716;2023-02-22T05:51:30;98568.59;;;1.64;100.00
11542;BME280;5827;49.482;7.716;2023-02-22T05:53:32;98563.97;;;1.66;100.00
11542;BME280;5827;49.482;7.716;2023-02-22T05:55:34;98573.06;;;1.64;100.00
11542;BME280;5827;49.482;7.716;2023-02-22T05:57:35;98569.63;;;1.63;100.00
11542;BME280;5827;49.482;7.716;2023-02-22T05:59:37;98563.09;;;1.59;100.00
11542;BME280;5827;49.482;7.716;2023-02-22T06:01:38;98563.03;;;1.52;100.00
11542;BME280;5827;49.482;7.716;2023-02-22T06:03:41;98554.09;;;1.53;100.00
11542;BME280;5827;49.482;7.716;2023-02-22T06:05:42;98564.09;;;1.58;100.00
11542;BME280;5827;49.482;7.716;2023-02-22T06:07:44;98556.94;;;1.52;100.00
11542;BME280;5827;49.482;7.716;2023-02-22T06:09:45;98557.19;;;1.57;100.00
11542;BME280;5827;49.482;7.716;2023-02-22T06:11:47;98559.00;;;1.57;100.00
11542;BME280;5827;49.482;7.716;2023-02-22T06:13:50;98560.84;;;1.56;100.00
11542;BME280;5827;49.482;7.716;2023-02-22T06:15:51;98563.47;;;1.56;100.00
11542;BME280;5827;49.482;7.716;2023-02-22T06:17:54;98563.38;;;1.43;100.00
11542;BME280;5827;49.482;7.716;2023-02-22T06:19:58;98551.44;;;1.25;100.00
11542;BME280;5827;49.482;7.716;2023-02-22T06:22:00;98553.78;;;1.42;100.00
11542;BME280;5827;49.482;7.716;2023-02-22T06:24:02;98551.84;;;1.50;100.00
11542;BME280;5827;49.482;7.716;2023-02-22T06:26:04;98555.97;;;1.60;100.00
11542;BME280;5827;49.482;7.716;2023-02-22T06:28:05;98548.69;;;1.62;100.00
11542;BME280;5827;49.482;7.716;2023-02-22T06:30:08;98549.44;;;1.56;100.00
11542;BME280;5827;49.482;7.716;2023-02-22T06:32:11;98547.66;;;1.56;100.00
11542;BME280;5827;49.482;7.716;2023-02-22T06:34:12;98543.34;;;1.55;100.00
11542;BME280;5827;49.482;7.716;2023-02-22T06:36:15;98548.47;;;1.57;100.00
11542;BME280;5827;49.482;7.716;2023-02-22T06:38:20;98545.41;;;1.60;100.00
11542;BME280;5827;49.482;7.716;2023-02-22T06:40:22;98554.16;;;1.60;100.00
11542;BME280;5827;49.482;7.716;2023-02-22T06:42:28;98555.59;;;1.63;100.00
11542;BME280;5827;49.482;7.716;2023-02-22T06:44:29;98554.59;;;1.64;100.00
11542;BME280;5827;49.482;7.716;2023-02-22T06:46:31;98553.78;;;1.63;100.00
11542;BME280;5827;49.482;7.716;2023-02-22T06:48:33;98557.63;;;1.61;100.00
11542;BME280;5827;49.482;7.716;2023-02-22T06:50:37;98555.38;;;1.58;100.00
11542;BME280;5827;49.482;7.716;2023-02-22T06:52:42;98561.34;;;1.45;100.00
11542;BME280;5827;49.482;7.716;2023-02-22T06:54:43;98560.84;;;1.56;100.00
11542;BME280;5827;49.482;7.716;2023-02-22T06:56:45;98565.72;;;1.59;100.00
11542;BME280;5827;49.482;7.716;2023-02-22T06:58:46;98568.19;;;1.61;100.00
11542;BME280;5827;49.482;7.716;2023-02-22T07:00:49;98575.09;;;1.62;100.00
11542;BME280;5827;49.482;7.716;2023-02-22T07:02:51;98569.50;;;1.50;100.00
11542;BME280;5827;49.482;7.716;2023-02-22T07:04:53;98571.88;;;1.66;100.00
11542;BME280;5827;49.482;7.716;2023-02-22T07:06:55;98574.41;;;1.74;100.00
11542;BME280;5827;49.482;7.716;2023-02-22T07:08:58;98581.47;;;1.74;100.00
11542;BME280;5827;49.482;7.716;2023-02-22T07:11:00;98586.47;;;1.84;100.00
11542;BME280;5827;49.482;7.716;2023-02-22T07:13:02;98585.63;;;1.83;100.00
11542;BME280;5827;49.482;7.716;2023-02-22T07:15:05;98585.03;;;1.88;100.00
11542;BME280;5827;49.482;7.716;2023-02-22T07:17:06;98582.47;;;1.94;100.00
11542;BME280;5827;49.482;7.716;2023-02-22T07:19:08;98591.00;;;1.96;100.00
11542;BME280;5827;49.482;7.716;2023-02-22T07:21:09;98584.28;;;1.94;100.00
11542;BME280;5827;49.482;7.716;2023-02-22T07:23:13;98589.00;;;1.98;100.00
11542;BME280;5827;49.482;7.716;2023-02-22T07:25:16;98597.38;;;2.02;100.00
11542;BME280;5827;49.482;7.716;2023-02-22T07:27:18;98591.34;;;1.87;100.00
11542;BME280;5827;49.482;7.716;2023-02-22T07:29:19;98591.06;;;2.03;100.00
11542;BME280;5827;49.482;7.716;2023-02-22T07:31:21;98596.63;;;2.15;100.00
11542;BME280;5827;49.482;7.716;2023-02-22T07:33:23;98593.81;;;2.23;100.00
11542;BME280;5827;49.482;7.716;2023-02-22T07:35:27;98591.84;;;2.32;100.00
11542;BME280;5827;49.482;7.716;2023-02-22T07:37:29;98596.34;;;2.38;100.00
11542;BME280;5827;49.482;7.716;2023-02-22T07:39:31;98595.34;;;2.39;100.00
11542;BME280;5827;49.482;7.716;2023-02-22T07:41:34;98589.94;;;2.53;100.00
11542;BME280;5827;49.482;7.716;2023-02-22T07:43:36;98593.97;;;2.49;100.00
11542;BME280;5827;49.482;7.716;2023-02-22T07:45:37;98585.31;;;2.62;100.00
11542;BME280;5827;49.482;7.716;2023-02-22T07:47:39;98589.22;;;2.73;100.00
11542;BME280;5827;49.482;7.716;2023-02-22T07:49:40;98590.06;;;2.80;100.00
11542;BME280;5827;49.482;7.716;2023-02-22T07:51:42;98586.63;;;2.86;100.00
11542;BME280;5827;49.482;7.716;2023-02-22T07:53:43;98580.13;;;3.02;100.00
11542;BME280;5827;49.482;7.716;2023-02-22T07:55:45;98582.00;;;3.08;100.00
11542;BME280;5827;49.482;7.716;2023-02-22T07:57:55;98592.00;;;3.19;100.00
11542;BME280;5827;49.482;7.716;2023-02-22T07:59:56;98592.44;;;3.36;100.00
11542;BME280;5827;49.482;7.716;2023-02-22T08:01:58;98600.81;;;3.46;100.00
11542;BME280;5827;49.482;7.716;2023-02-22T08:03:59;98602.66;;;3.52;99.56
11542;BME280;5827;49.482;7.716;2023-02-22T08:06:01;98600.41;;;3.56;99.47
11542;BME280;5827;49.482;7.716;2023-02-22T08:08:03;98594.94;;;3.64;99.46
11542;BME280;5827;49.482;7.716;2023-02-22T08:10:06;98601.66;;;3.73;99.24
11542;BME280;5827;49.482;7.716;2023-02-22T08:12:08;98592.50;;;3.76;98.48
11542;BME280;5827;49.482;7.716;2023-02-22T08:14:14;98595.34;;;3.88;98.79
11542;BME280;5827;49.482;7.716;2023-02-22T08:16:16;98593.91;;;3.92;97.78
11542;BME280;5827;49.482;7.716;2023-02-22T08:18:18;98595.13;;;3.96;98.97
11542;BME280;5827;49.482;7.716;2023-02-22T08:20:21;98592.28;;;4.04;99.21
11542;BME280;5827;49.482;7.716;2023-02-22T08:22:22;98590.25;;;4.13;98.94
11542;BME280;5827;49.482;7.716;2023-02-22T08:24:24;98596.13;;;4.21;98.33
11542;BME280;5827;49.482;7.716;2023-02-22T08:26:25;98596.53;;;4.18;97.82
11542;BME280;5827;49.482;7.716;2023-02-22T08:28:27;98602.44;;;4.20;98.09
11542;BME280;5827;49.482;7.716;2023-02-22T08:30:31;98598.38;;;4.31;98.07
11542;BME280;5827;49.482;7.716;2023-02-22T08:32:33;98596.09;;;4.34;98.57
11542;BME280;5827;49.482;7.716;2023-02-22T08:34:35;98593.22;;;4.43;97.55
11542;BME280;5827;49.482;7.716;2023-02-22T08:36:40;98599.34;;;4.50;98.52
11542;BME280;5827;49.482;7.716;2023-02-22T08:38:42;98593.78;;;4.58;98.46
11542;BME280;5827;49.482;7.716;2023-02-22T08:40:43;98607.25;;;4.63;97.52
11542;BME280;5827;49.482;7.716;2023-02-22T08:42:45;98597.66;;;4.69;97.74
11542;BME280;5827;49.482;7.716;2023-02-22T08:44:46;98599.22;;;4.76;98.30
11542;BME280;5827;49.482;7.716;2023-02-22T08:46:49;98597.47;;;4.64;98.50
11542;BME280;5827;49.482;7.716;2023-02-22T08:48:51;98596.63;;;4.70;97.74
11542;BME280;5827;49.482;7.716;2023-02-22T08:50:53;98592.66;;;4.85;98.61
11542;BME280;5827;49.482;7.716;2023-02-22T08:52:56;98596.28;;;5.04;97.63
11542;BME280;5827;49.482;7.716;2023-02-22T08:54:58;98590.69;;;5.13;97.23
11542;BME280;5827;49.482;7.716;2023-02-22T08:57:00;98596.38;;;5.23;97.87
11542;BME280;5827;49.482;7.716;2023-02-22T08:59:01;98594.72;;;5.28;96.75
11542;BME280;5827;49.482;7.716;2023-02-22T09:01:03;98595.22;;;5.44;97.21
11542;BME280;5827;49.482;7.716;2023-02-22T09:03:08;98599.06;;;5.54;96.87
11542;BME280;5827;49.482;7.716;2023-02-22T09:05:12;98595.31;;;5.62;96.37
11542;BME280;5827;49.482;7.716;2023-02-22T09:07:16;98591.13;;;5.48;96.79
11542;BME280;5827;49.482;7.716;2023-02-22T09:09:19;98589.78;;;5.64;96.85
11542;BME280;5827;49.482;7.716;2023-02-22T09:11:20;98593.81;;;5.73;96.43
11542;BME280;5827;49.482;7.716;2023-02-22T09:13:22;98591.88;;;5.86;97.48
11542;BME280;5827;49.482;7.716;2023-02-22T09:15:24;98590.84;;;5.88;96.89
11542;BME280;5827;49.482;7.716;2023-02-22T09:17:26;98583.44;;;5.96;97.35
11542;BME280;5827;49.482;7.716;2023-02-22T09:19:28;98584.69;;;6.12;96.28
11542;BME280;5827;49.482;7.716;2023-02-22T09:21:30;98575.03;;;6.18;96.75
11542;BME280;5827;49.482;7.716;2023-02-22T09:23:31;98578.38;;;6.31;96.90
11542;BME280;5827;49.482;7.716;2023-02-22T09:25:34;98580.59;;;6.34;96.32
11542;BME280;5827;49.482;7.716;2023-02-22T09:27:35;98578.03;;;6.46;96.77
11542;BME280;5827;49.482;7.716;2023-02-22T09:29:38;98569.72;;;6.54;95.67
11542;BME280;5827;49.482;7.716;2023-02-22T09:31:40;98568.41;;;6.63;95.67
11542;BME280;5827;49.482;7.716;2023-02-22T09:33:41;98569.88;;;6.78;95.55
11542;BME280;5827;49.482;7.716;2023-02-22T09:35:47;98578.03;;;6.83;95.70
11542;BME280;5827;49.482;7.716;2023-02-22T09:37:49;98572.47;;;6.84;94.75
11542;BME280;5827;49.482;7.716;2023-02-22T09:39:51;98573.34;;;6.97;95.63
11542;BME280;5827;49.482;7.716;2023-02-22T09:41:59;98558.69;;;7.06;95.53
11542;BME280;5827;49.482;7.716;2023-02-22T09:44:10;98564.16;;;7.23;95.06
11542;BME280;5827;49.482;7.716;2023-02-22T09:46:21;98561.31;;;7.36;95.12
11542;BME280;5827;49.482;7.716;2023-02-22T09:48:26;98564.47;;;7.45;94.79
11542;BME280;5827;49.482;7.716;2023-02-22T09:50:33;98559.88;;;7.52;94.82
11542;BME280;5827;49.482;7.716;2023-02-22T09:52:45;98558.69;;;7.48;96.21
11542;BME280;5827;49.482;7.716;2023-02-22T09:54:53;98562.97;;;7.60;95.30
11542;BME280;5827;49.482;7.716;2023-02-22T09:56:56;98562.28;;;7.65;95.67
11542;BME280;5827;49.482;7.716;2023-02-22T09:59:00;98562.31;;;7.77;95.29
11542;BME280;5827;49.482;7.716;2023-02-22T10:01:14;98561.19;;;7.84;94.37
11542;BME280;5827;49.482;7.716;2023-02-22T10:03:21;98555.13;;;7.77;95.30
11542;BME280;5827;49.482;7.716;2023-02-22T10:05:27;98555.03;;;7.96;94.70
11542;BME280;5827;49.482;7.716;2023-02-22T10:07:36;98557.38;;;8.15;94.66
11542;BME280;5827;49.482;7.716;2023-02-22T10:09:42;98559.66;;;8.24;94.58
11542;BME280;5827;49.482;7.716;2023-02-22T10:11:51;98552.59;;;8.29;93.83
11542;BME280;5827;49.482;7.716;2023-02-22T10:14:04;98550.41;;;8.26;95.07
11542;BME280;5827;49.482;7.716;2023-02-22T10:16:14;98546.91;;;8.37;94.93
11542;BME280;5827;49.482;7.716;2023-02-22T10:18:37;98551.78;;;8.52;93.64
11542;BME280;5827;49.482;7.716;2023-02-22T10:20:50;98544.69;;;8.58;93.37
11542;BME280;5827;49.482;7.716;2023-02-22T10:23:01;98545.63;;;8.52;95.03
11542;BME280;5827;49.482;7.716;2023-02-22T10:25:10;98544.72;;;8.46;95.54
11542;BME280;5827;49.482;7.716;2023-02-22T10:27:16;98542.22;;;8.68;94.55
11542;BME280;5827;49.482;7.716;2023-02-22T10:29:26;98539.00;;;8.95;94.45
11542;BME280;5827;49.482;7.716;2023-02-22T10:31:33;98544.16;;;9.13;93.99
11542;BME280;5827;49.482;7.716;2023-02-22T10:33:41;98539.97;;;9.34;93.43
11542;BME280;5827;49.482;7.716;2023-02-22T10:35:46;98544.13;;;9.41;93.44
11542;BME280;5827;49.482;7.716;2023-02-22T10:37:52;98540.41;;;9.42;93.39
11542;BME280;5827;49.482;7.716;2023-02-22T10:40:00;98535.47;;;9.51;93.58
11542;BME280;5827;49.482;7.716;2023-02-22T10:42:07;98530.16;;;9.23;95.86
11542;BME280;5827;49.482;7.716;2023-02-22T10:44:09;98530.13;;;9.51;95.86
11542;BME280;5827;49.482;7.716;2023-02-22T10:46:13;98527.63;;;9.78;95.24
11542;BME280;5827;49.482;7.716;2023-02-22T10:48:17;98536.25;;;10.02;93.58
11542;BME280;5827;49.482;7.716;2023-02-22T10:50:20;98527.03;;;10.10;95.19
11542;BME280;5827;49.482;7.716;2023-02-22T10:52:24;98529.84;;;10.20;93.57
11542;BME280;5827;49.482;7.716;2023-02-22T10:54:29;98527.84;;;10.27;92.65
11542;BME280;5827;49.482;7.716;2023-02-22T10:56:32;98529.41;;;10.45;92.83
11542;BME280;5827;49.482;7.716;2023-02-22T10:58:46;98536.25;;;10.58;92.68
11542;BME280;5827;49.482;7.716;2023-02-22T11:00:49;98525.34;;;10.42;92.96
11542;BME280;5827;49.482;7.716;2023-02-22T11:02:52;98525.75;;;10.73;92.33
11542;BME280;5827;49.482;7.716;2023-02-22T11:04:57;98527.53;;;10.89;92.74
11542;BME280;5827;49.482;7.716;2023-02-22T11:07:08;98527.38;;;11.01;92.00
11542;BME280;5827;49.482;7.716;2023-02-22T11:09:13;98518.03;;;11.04;91.58
11542;BME280;5827;49.482;7.716;2023-02-22T11:11:21;98524.53;;;11.13;91.22